Tygh Valley, Oregon
Current Conditions -  °F | °C
As of 6:09 AM on Thursday 30 Oct 2014 (Local Time) from KDLS Reporting Station
Light Rain Light Rain  
Wind Chill: 54°   Ceiling: 1300
Heat Index: 54°   Visibility: 5mi
Dew Point: 53°   Wind: 0mph
Humidity: 97%   Direction: NA
Pressure: 30.04"   Gusts: NA
Location:  45.25°N, 121.18°W
Report Text: KDLS 301309Z AUTO 00000KT 5SM -RA BR FEW006 OVC013 12/12 A3004 RMK AO2 RAB1259 P0000 T01220117
Loading
Personal Weather Stations






























Interactive Weather Map
Tropical Storm Tracking
New forecast layout! Learn more

10-Day Weather Forecast

Advertisements
Track Severe Weather on mobile